Weather at Bay Bridge Airport

Public forecast

Using degrees Fahrenheit for public forecast. Weather courtesy of forecast.io.

Closest aviation weather report (METAR) to Bay Bridge Airport

Closest report is Easton Airport / Newnam Field, 16.0 nm (29.6 km) SE.

2024/05/29 17:45 (retrieved 1 hour ago)

KESN 291745Z 25005KT 10SM FEW055 25/13 A2995

Closest aviation forecast (TAF) to Bay Bridge Airport

Closest forecast is Baltimore/Washington International Thurgood Marshall Airport, 19.8 nm (36.7 km) NW.

2024/05/29 18:45 (retrieved 7 minutes ago)

TAF KBWI 291742Z 2918/3024 30007KT 6SM -SHRA VCTS OVC060CB FM291900 27009G15KT 6SM -SHRA VCTS OVC060CB FM292200 28008KT P6SM VCSH BKN080 FM300300 32005KT P6SM SCT100 FM301100 34008G16KT P6SM FEW250 FM302300 33006KT P6SM FEW150